CheckWX is a tool to help pilots better visualize weather data.  It is not intended as a substitute for an official pre-flight weather briefing.

01:05:09 UTC

ENBN METAR
Brønnøysund Airport
Brønnøy, Norway
Current

15 mins ago

ENBN 240050Z AUTO 27020G33KT //// SCT041/// OVC054/// 03/M06 Q1000
Observed
Mar-24 @ 00:50 UTC
Wind
  • 270° at 20 KTS
  • Gusting to 33 KTS
Visibility
Cloud Levels
  • Scattered at 4,100' AGL
  • Overcast at 5,400' AGL
Temperature
C / 37°F
Dewpoint
-6°C / 21°F
Humidity
52%
Altimeter
29.53" Hg
Pressure
999.92 hPa
Previous

45 mins ago

ENBN 240020Z AUTO 26023G35KT 230V300 //// SCT037/// OVC056/// 03/M04 Q0999
Observed
Mar-24 @ 00:20 UTC
Wind
  • 260° at 23 KTS
  • Gusting to 35 KTS
Visibility
Cloud Levels
  • Scattered at 3,700' AGL
  • Overcast at 5,600' AGL
Temperature
C / 37°F
Dewpoint
-4°C / 25°F
Humidity
60%
Altimeter
29.5" Hg
Pressure
998.92 hPa
Previous

1 hour ago

ENBN 232350Z AUTO 27027G38KT //// FEW009/// SCT038/// OVC054/// 03/M04 Q0998
Observed
Mar-23 @ 23:50 UTC
Wind
  • 270° at 27 KTS
  • Gusting to 38 KTS
Visibility
Cloud Levels
  • Few at 900' AGL
  • Scattered at 3,800' AGL
  • Overcast at 5,400' AGL
Temperature
C / 37°F
Dewpoint
-4°C / 25°F
Humidity
60%
Altimeter
29.47" Hg
Pressure
997.92 hPa